Time;durP1;ratioP1;P1;durP2;ratioP2;P2;SDS_P1;SDS_P2;PMS_P1;PMS_P2;Temp;Humidity;BMP_temperature;BMP_pressure;BME280_temperature;BME280_humidity;BME280_pressure;Samples;Min_cycle;Max_cycle;Signal;HPM_P1;HPM_P2
2023/03/01 00:01:53;;;;;;;29.88;18.05;;;;;;;-2.60;100.00;103226.13;2616579;36;20606;-52
2023/03/01 00:04:21;;;;;;;33.88;19.38;;;;;;;-2.61;100.00;103229.63;2615324;36;20038;-53
2023/03/01 00:06:49;;;;;;;33.85;19.55;;;;;;;-2.65;100.00;103229.63;2616429;36;20042;-50
2023/03/01 00:09:18;;;;;;;34.75;18.73;;;;;;;-2.63;100.00;103221.72;2615641;36;20022;-53
2023/03/01 00:11:47;;;;;;;38.97;19.40;;;;;;;-2.62;100.00;103227.84;2616044;36;20035;-55
2023/03/01 00:14:17;;;;;;;36.05;19.60;;;;;;;-2.66;100.00;103217.31;2615463;36;20030;-51
2023/03/01 00:16:48;;;;;;;34.45;18.17;;;;;;;-2.66;100.00;103216.44;2615788;36;20035;-57
2023/03/01 00:19:18;;;;;;;35.45;16.98;;;;;;;-2.72;100.00;103211.13;2614948;36;20035;-51
2023/03/01 00:21:47;;;;;;;35.40;17.50;;;;;;;-2.70;100.00;103222.56;2615056;36;20034;-52
2023/03/01 00:24:15;;;;;;;35.20;18.10;;;;;;;-2.70;100.00;103212.00;2616089;36;20038;-49
2023/03/01 00:26:44;;;;;;;31.92;17.65;;;;;;;-2.70;100.00;103220.78;2616842;36;20428;-52
2023/03/01 00:29:12;;;;;;;28.05;15.85;;;;;;;-2.71;100.00;103218.16;2616336;36;20049;-52
2023/03/01 00:31:41;;;;;;;29.05;15.43;;;;;;;-2.74;100.00;103218.13;2616713;36;20423;-56
2023/03/01 00:34:12;;;;;;;25.40;14.48;;;;;;;-2.73;100.00;103214.63;2615790;36;20045;-50
2023/03/01 00:36:41;;;;;;;24.20;14.57;;;;;;;-2.74;100.00;103212.88;2615042;36;20030;-50
2023/03/01 00:39:14;;;;;;;24.20;14.32;;;;;;;-2.76;100.00;103212.00;2616427;36;20049;-54
2023/03/01 00:41:44;;;;;;;23.33;14.32;;;;;;;-2.73;100.00;103210.22;2616441;36;20050;-49
2023/03/01 00:44:13;;;;;;;25.52;14.65;;;;;;;-2.77;100.00;103203.19;2615567;36;20050;-54
2023/03/01 00:46:41;;;;;;;24.52;14.18;;;;;;;-2.88;100.00;103211.03;2616855;36;20034;-53
2023/03/01 00:49:12;;;;;;;21.52;13.40;;;;;;;-2.77;100.00;103212.84;2615854;36;20049;-53
2023/03/01 00:51:41;;;;;;;21.65;13.80;;;;;;;-2.84;100.00;103210.19;2616652;36;20026;-59
2023/03/01 00:54:11;;;;;;;23.35;13.90;;;;;;;-2.87;100.00;103206.63;2615845;36;20030;-53
2023/03/01 00:56:40;;;;;;;23.02;13.40;;;;;;;-2.91;100.00;103195.22;2616547;36;20043;-52
2023/03/01 00:59:08;;;;;;;23.17;14.27;;;;;;;-2.91;100.00;103195.22;2616514;31;20503;-54
2023/03/01 01:01:36;;;;;;;24.02;14.55;;;;;;;-2.89;100.00;103197.84;2615907;36;20026;-58
2023/03/01 01:04:07;;;;;;;24.00;13.55;;;;;;;-2.97;100.00;103184.66;2615476;36;20038;-59
2023/03/01 01:06:42;;;;;;;21.27;13.15;;;;;;;-3.01;100.00;103182.88;2616577;36;20030;-50
2023/03/01 01:09:16;;;;;;;21.95;12.90;;;;;;;-3.02;100.00;103187.25;2616269;36;20134;-55
2023/03/01 01:11:45;;;;;;;20.58;12.18;;;;;;;-2.99;100.00;103173.19;2616180;36;20039;-57
2023/03/01 01:14:14;;;;;;;21.05;13.45;;;;;;;-3.02;100.00;103176.72;2615676;36;20046;-56
2023/03/01 01:16:42;;;;;;;20.73;13.27;;;;;;;-3.02;100.00;103181.09;2616340;36;20041;-52
2023/03/01 01:19:12;;;;;;;18.70;13.25;;;;;;;-3.02;100.00;103175.81;2615833;36;20299;-59
2023/03/01 01:21:44;;;;;;;21.95;13.02;;;;;;;-3.01;100.00;103183.72;2615105;36;20057;-54
2023/03/01 01:24:13;;;;;;;20.35;12.75;;;;;;;-2.97;100.00;103173.22;2615673;36;20424;-52
2023/03/01 01:26:41;;;;;;;17.95;12.55;;;;;;;-3.09;100.00;103174.94;2616333;36;20039;-54
2023/03/01 01:29:10;;;;;;;19.80;12.38;;;;;;;-3.12;100.00;103174.91;2615653;36;20508;-56
2023/03/01 01:31:40;;;;;;;19.63;11.93;;;;;;;-3.16;100.00;103175.75;2616608;36;20049;-57
2023/03/01 01:34:11;;;;;;;19.27;12.02;;;;;;;-3.22;100.00;103162.56;2615196;36;20303;-54
2023/03/01 01:36:39;;;;;;;20.25;11.77;;;;;;;-3.20;100.00;103160.78;2616062;36;20034;-52
2023/03/01 01:39:12;;;;;;;21.40;11.02;;;;;;;-3.28;100.00;103173.03;2615948;31;20058;-52
2023/03/01 01:41:42;;;;;;;17.50;11.38;;;;;;;-3.32;100.00;103164.25;2616509;36;20089;-53
2023/03/01 01:44:18;;;;;;;20.15;10.68;;;;;;;-3.30;100.00;103167.75;2615588;36;20031;-55
2023/03/01 01:46:50;;;;;;;19.88;11.85;;;;;;;-3.31;100.00;103168.66;2616402;36;20034;-56
2023/03/01 01:49:33;;;;;;;17.52;11.57;;;;;;;-3.35;100.00;103162.47;2615665;36;20559;-52
2023/03/01 01:52:11;;;;;;;21.00;11.07;;;;;;;-3.34;100.00;103158.09;2616249;36;20038;-56
2023/03/01 01:54:48;;;;;;;17.80;10.98;;;;;;;-3.32;100.00;103156.34;2616079;31;20623;-61
2023/03/01 01:57:20;;;;;;;20.02;11.35;;;;;;;-3.34;100.00;103158.09;2615955;36;20035;-56
2023/03/01 01:59:55;;;;;;;19.30;10.63;;;;;;;-3.43;100.00;103158.91;2615706;36;20047;-55
2023/03/01 02:02:24;;;;;;;18.38;11.55;;;;;;;-3.52;100.00;103153.56;2615017;36;20042;-51
2023/03/01 02:04:59;;;;;;;19.75;11.30;;;;;;;-3.50;100.00;103154.47;2616058;36;20034;-49
2023/03/01 02:07:28;;;;;;;17.75;10.63;;;;;;;-3.45;100.00;103143.97;2616081;36;20038;-57
2023/03/01 02:10:00;;;;;;;17.20;11.60;;;;;;;-3.49;100.00;103153.56;2615669;36;20138;-56
2023/03/01 02:12:32;;;;;;;18.05;11.38;;;;;;;-3.47;100.00;103148.34;2615863;36;20046;-56
2023/03/01 02:15:00;;;;;;;17.67;11.38;;;;;;;-3.53;100.00;103150.06;2616224;31;20026;-53
2023/03/01 02:17:28;;;;;;;16.20;11.30;;;;;;;-3.57;100.00;103145.63;2615236;31;20045;-55
2023/03/01 02:20:09;;;;;;;17.45;11.23;;;;;;;-3.61;100.00;103146.47;2616634;31;20420;-50
2023/03/01 02:22:40;;;;;;;17.83;11.50;;;;;;;-3.64;100.00;103141.19;2615923;36;20050;-55
2023/03/01 02:25:36;;;;;;;18.00;11.45;;;;;;;-3.68;100.00;103135.91;2616481;36;20455;-56
2023/03/01 02:28:17;;;;;;;16.90;11.52;;;;;;;-3.77;100.00;103137.59;2615781;36;20739;-56
2023/03/01 02:33:35;;;;;;;22.23;12.77;;;;;;;-3.80;100.00;103134.06;2615063;36;20058;-56
2023/03/01 02:36:07;;;;;;;17.25;12.18;;;;;;;-3.92;100.00;103137.47;2615822;31;20519;-52
2023/03/01 02:38:35;;;;;;;20.55;13.35;;;;;;;-3.91;100.00;103134.84;2616065;36;20555;-53
2023/03/01 02:41:06;;;;;;;18.23;11.88;;;;;;;-3.94;100.00;103126.94;2616594;31;20030;-56
2023/03/01 02:43:36;;;;;;;20.25;12.68;;;;;;;-3.95;100.00;103127.78;2615487;36;20037;-52
2023/03/01 02:46:09;;;;;;;22.50;12.20;;;;;;;-3.95;100.00;103133.03;2616177;36;20034;-56
2023/03/01 02:48:43;;;;;;;23.23;12.75;;;;;;;-3.98;100.00;103127.75;2615513;31;20034;-53
2023/03/01 02:51:28;;;;;;;21.98;13.35;;;;;;;-4.03;100.00;103124.22;2616022;36;20042;-51
2023/03/01 02:54:10;;;;;;;19.65;12.18;;;;;;;-4.08;100.00;103124.19;2615765;36;20059;-57
2023/03/01 02:56:38;;;;;;;20.55;12.50;;;;;;;-4.03;100.00;103125.94;2615579;36;20041;-59
2023/03/01 02:59:07;;;;;;;20.08;13.00;;;;;;;-4.05;100.00;103118.94;2615871;36;20049;-51
2023/03/01 03:01:41;;;;;;;19.38;12.18;;;;;;;-4.07;100.00;103123.28;2615985;31;20642;-52
2023/03/01 03:04:12;;;;;;;23.35;13.73;;;;;;;-4.07;100.00;103106.66;2615250;36;20038;-51
2023/03/01 03:06:41;;;;;;;24.88;14.73;;;;;;;-4.01;100.00;103111.97;2615848;36;20042;-52
2023/03/01 03:09:09;;;;;;;25.02;13.82;;;;;;;-3.98;100.00;103101.47;2616256;36;20049;-54
2023/03/01 03:11:39;;;;;;;23.15;13.45;;;;;;;-3.97;100.00;103103.22;2616952;31;20476;-51
2023/03/01 03:14:12;;;;;;;;;;;;;;;-4.04;100.00;103101.41;2615317;31;20141;-55
2023/03/01 03:16:44;;;;;;;24.90;13.02;;;;;;;-4.05;100.00;103097.00;2616771;36;20049;-56
2023/03/01 03:19:12;;;;;;;26.55;15.25;;;;;;;-4.02;100.00;103093.53;2615549;36;20420;-54
2023/03/01 03:21:41;;;;;;;27.05;14.98;;;;;;;-4.00;100.00;103097.94;2616914;36;20451;-56
2023/03/01 03:24:10;;;;;;;31.17;16.15;;;;;;;-3.97;100.00;103097.97;2616463;36;20089;-59
2023/03/01 03:26:39;;;;;;;24.33;14.50;;;;;;;-3.99;100.00;103094.47;2617108;36;20423;-53
2023/03/01 03:29:07;;;;;;;27.42;15.10;;;;;;;-4.03;100.00;103086.50;2616217;36;20097;-50
2023/03/01 03:31:36;;;;;;;24.58;15.38;;;;;;;-4.08;100.00;103089.09;2616787;31;20034;-57
2023/03/01 03:34:07;;;;;;;28.92;15.93;;;;;;;-4.07;100.00;103090.88;2616513;36;20436;-53
2023/03/01 03:36:35;;;;;;;28.50;15.93;;;;;;;-4.01;100.00;103090.91;2616276;36;20034;-57
2023/03/01 03:39:05;;;;;;;27.33;15.73;;;;;;;-3.99;100.00;103083.03;2616364;36;20023;-57
2023/03/01 03:41:36;;;;;;;27.05;14.98;;;;;;;-3.92;100.00;103080.44;2616462;36;20026;-52
2023/03/01 03:44:05;;;;;;;26.05;15.13;;;;;;;-3.99;100.00;103080.41;2615725;31;20045;-58
2023/03/01 03:46:33;;;;;;;27.95;15.27;;;;;;;-4.09;100.00;103084.72;2616544;36;20030;-51
2023/03/01 03:49:01;;;;;;;24.60;14.35;;;;;;;-4.20;100.00;103083.75;2616021;36;20034;-56
2023/03/01 03:51:32;;;;;;;25.30;14.57;;;;;;;-4.15;100.00;103077.66;2616339;36;20034;-54
2023/03/01 03:54:01;;;;;;;20.98;13.20;;;;;;;-4.25;100.00;103081.06;2615844;36;20037;-55
2023/03/01 03:56:29;;;;;;;25.20;13.52;;;;;;;-4.30;100.00;103083.66;2616382;36;20039;-54
2023/03/01 03:58:57;;;;;;;27.77;14.93;;;;;;;-4.27;100.00;103088.06;2615561;36;20027;-56
2023/03/01 04:01:26;;;;;;;24.85;14.50;;;;;;;-4.21;100.00;103080.25;2616232;36;20603;-49
2023/03/01 04:03:54;;;;;;;25.25;14.45;;;;;;;-4.15;100.00;103077.66;2615980;36;20034;-51
2023/03/01 04:06:23;;;;;;;23.25;13.95;;;;;;;-4.16;100.00;103080.28;2616455;36;20027;-60
2023/03/01 04:08:59;;;;;;;26.27;14.43;;;;;;;-4.22;100.00;103089.84;2616312;36;20074;-53
2023/03/01 04:11:31;;;;;;;24.58;14.60;;;;;;;-4.29;100.00;103095.94;2616702;31;20302;-59
2023/03/01 04:14:00;;;;;;;25.33;14.88;;;;;;;-4.27;100.00;103088.94;2615875;36;20038;-53
2023/03/01 04:16:29;;;;;;;29.30;16.70;;;;;;;-4.23;100.00;103093.34;2615555;31;20061;-55
2023/03/01 04:18:59;;;;;;;24.70;15.20;;;;;;;-4.14;100.00;103095.19;2615995;36;20447;-58
2023/03/01 04:21:28;;;;;;;24.60;15.02;;;;;;;-4.01;100.00;103096.19;2616552;36;20031;-55
2023/03/01 04:23:58;;;;;;;27.37;16.27;;;;;;;-3.90;100.00;103086.63;2616399;36;20136;-57
2023/03/01 04:26:27;;;;;;;27.83;15.45;;;;;;;-3.78;100.00;103092.84;2616473;36;20280;-55
2023/03/01 04:28:55;;;;;;;31.27;17.00;;;;;;;-3.64;100.00;103085.91;2615862;36;20035;-58
2023/03/01 04:31:23;;;;;;;30.85;16.88;;;;;;;-3.47;100.00;103078.13;2616773;36;20411;-60
2023/03/01 04:33:53;;;;;;;37.55;18.00;;;;;;;-3.42;100.00;103076.41;2615156;36;20594;-57
2023/03/01 04:36:24;;;;;;;39.75;18.73;;;;;;;-3.27;100.00;103080.84;2615990;31;20057;-51
2023/03/01 04:38:53;;;;;;;40.00;19.33;;;;;;;-3.20;100.00;103082.66;2616407;36;20954;-54
2023/03/01 04:41:26;;;;;;;68.05;23.23;;;;;;;-3.07;100.00;103088.00;2616133;36;20074;-56
2023/03/01 04:43:55;;;;;;;46.50;20.05;;;;;;;-2.94;100.00;103088.94;2615831;36;20125;-54
2023/03/01 04:46:23;;;;;;;41.20;20.48;;;;;;;-2.92;100.00;103077.50;2616542;36;20042;-57
2023/03/01 04:48:52;;;;;;;47.15;19.58;;;;;;;-2.90;100.00;103078.41;2615735;36;20035;-54
2023/03/01 04:51:20;;;;;;;57.03;21.48;;;;;;;-2.89;100.00;103072.25;2615846;36;20033;-57
2023/03/01 04:53:48;;;;;;;47.83;21.23;;;;;;;-2.90;100.00;103065.22;2615788;36;20031;-53
2023/03/01 04:56:17;;;;;;;46.03;20.27;;;;;;;-2.90;100.00;103070.50;2616201;36;20038;-53
2023/03/01 04:58:49;;;;;;;41.40;20.65;;;;;;;-2.96;100.00;103059.03;2615879;36;20042;-56
2023/03/01 05:01:19;;;;;;;46.03;19.83;;;;;;;-2.95;100.00;103056.41;2616361;36;20042;-52
2023/03/01 05:03:49;;;;;;;45.45;20.05;;;;;;;-2.89;100.00;103050.28;2615034;36;20058;-54
2023/03/01 05:06:18;;;;;;;40.05;19.67;;;;;;;-2.83;100.00;103051.19;2616150;36;20042;-53
2023/03/01 05:08:47;;;;;;;43.88;19.35;;;;;;;-2.89;100.00;103048.53;2616041;36;20038;-51
2023/03/01 05:11:15;;;;;;;45.47;20.92;;;;;;;-3.02;100.00;103041.47;2615947;36;20030;-55
2023/03/01 05:13:44;;;;;;;39.17;19.92;;;;;;;-3.12;100.00;103043.19;2615963;36;20281;-57
2023/03/01 05:16:16;;;;;;;37.05;19.75;;;;;;;-3.13;100.00;103035.28;2616163;31;20034;-53
2023/03/01 05:18:45;;;;;;;38.05;19.33;;;;;;;-3.14;100.00;103033.53;2615722;36;20041;-51
2023/03/01 05:21:18;;;;;;;43.88;20.67;;;;;;;-3.26;100.00;103023.81;2616415;36;20043;-52
2023/03/01 05:23:46;;;;;;;34.35;19.38;;;;;;;-3.30;100.00;103033.44;2615843;36;20154;-51
2023/03/01 05:26:15;;;;;;;37.03;18.88;;;;;;;-3.39;100.00;103028.16;2616044;36;20038;-57
2023/03/01 05:28:43;;;;;;;36.47;19.08;;;;;;;-3.39;100.00;103028.16;2615598;36;20030;-49
2023/03/01 05:31:14;;;;;;;35.63;18.08;;;;;;;-3.40;100.00;103029.00;2615914;36;20061;-57
2023/03/01 05:33:43;;;;;;;39.28;19.23;;;;;;;-3.43;100.00;103031.63;2615215;36;20042;-53
2023/03/01 05:36:12;;;;;;;37.30;19.40;;;;;;;-3.46;100.00;103021.09;2616223;31;20058;-51
2023/03/01 05:38:41;;;;;;;34.58;18.58;;;;;;;-3.44;100.00;103022.00;2616022;36;20038;-48
2023/03/01 05:41:16;;;;;;;34.67;17.85;;;;;;;-3.41;100.00;103014.09;2616238;36;20038;-58
2023/03/01 05:43:45;;;;;;;33.85;17.55;;;;;;;-3.43;100.00;103014.09;2615378;36;20038;-58
2023/03/01 05:46:15;;;;;;;35.08;18.67;;;;;;;-3.49;100.00;103005.28;2616491;36;20428;-54
2023/03/01 05:48:44;;;;;;;34.97;18.60;;;;;;;-3.55;100.00;103007.03;2615987;36;20483;-53
2023/03/01 05:51:12;;;;;;;35.60;18.70;;;;;;;-3.54;100.00;103005.25;2615895;36;20061;-51
2023/03/01 05:53:41;;;;;;;34.10;17.60;;;;;;;-3.48;100.00;103012.31;2615850;36;20046;-52
2023/03/01 05:56:10;;;;;;;32.30;17.65;;;;;;;-3.58;100.00;103011.38;2615163;36;20029;-55
2023/03/01 05:58:39;;;;;;;36.53;18.67;;;;;;;-3.57;100.00;103007.88;2615704;36;20053;-56
2023/03/01 06:01:07;;;;;;;34.33;18.60;;;;;;;-3.57;100.00;103005.25;2616064;36;20069;-56
2023/03/01 06:03:38;;;;;;;33.30;18.70;;;;;;;-3.65;100.00;102999.97;2615252;36;20026;-51
2023/03/01 06:06:07;;;;;;;29.35;16.92;;;;;;;-3.65;100.00;102999.06;2616158;36;20026;-56
2023/03/01 06:08:35;;;;;;;34.67;18.27;;;;;;;-3.62;100.00;102999.97;2615703;31;20562;-56
2023/03/01 06:11:03;;;;;;;35.20;17.92;;;;;;;-3.60;100.00;103000.84;2615006;36;20508;-56
2023/03/01 06:13:32;;;;;;;36.15;18.65;;;;;;;-3.67;100.00;102996.41;2616077;31;20034;-53
2023/03/01 06:16:00;;;;;;;34.17;18.08;;;;;;;-3.69;100.00;103003.44;2616430;31;20532;-53
2023/03/01 06:18:28;;;;;;;39.53;19.50;;;;;;;-3.67;100.00;103001.69;2614751;31;20061;-53
2023/03/01 06:20:59;;;;;;;39.67;20.27;;;;;;;-3.70;100.00;102992.00;2614484;31;20073;-55
2023/03/01 06:23:28;;;;;;;37.00;19.55;;;;;;;-3.70;100.00;102996.41;2614503;36;20041;-48
2023/03/01 06:25:56;;;;;;;35.57;18.83;;;;;;;-3.72;100.00;103003.44;2614222;36;20042;-53
2023/03/01 06:28:25;;;;;;;35.65;19.48;;;;;;;-3.66;100.00;103003.44;2613891;36;20049;-51
2023/03/01 06:30:55;;;;;;;35.40;18.57;;;;;;;-3.79;100.00;103002.50;2612181;31;20789;-55
2023/03/01 06:33:24;;;;;;;35.00;19.40;;;;;;;-3.84;100.00;103004.22;2615181;36;20669;-56
2023/03/01 06:35:53;;;;;;;37.03;19.67;;;;;;;-3.80;100.00;103005.13;2615696;36;20034;-55
2023/03/01 06:38:24;;;;;;;35.45;19.27;;;;;;;-3.83;100.00;103003.34;2615432;36;20030;-56
2023/03/01 06:40:56;;;;;;;36.95;19.25;;;;;;;-3.93;100.00;103006.78;2615558;36;20045;-49
2023/03/01 06:43:25;;;;;;;36.10;19.27;;;;;;;-3.96;100.00;103007.66;2616338;36;20063;-52
2023/03/01 06:45:53;;;;;;;33.85;17.60;;;;;;;-3.99;100.00;103005.03;2616936;36;20158;-57
2023/03/01 06:48:22;;;;;;;32.55;19.35;;;;;;;-3.96;100.00;103001.50;2615972;36;20415;-56
2023/03/01 06:50:50;;;;;;;33.53;19.13;;;;;;;-3.92;100.00;103001.53;2616993;36;20046;-56
2023/03/01 06:53:18;;;;;;;33.92;17.35;;;;;;;-3.93;100.00;103010.31;2616503;36;20045;-53
2023/03/01 06:55:49;;;;;;;34.72;20.10;;;;;;;-3.90;100.00;103010.34;2616842;31;20035;-55
2023/03/01 06:58:17;;;;;;;37.13;18.58;;;;;;;-3.78;100.00;103016.56;2616128;36;20057;-54
2023/03/01 07:00:46;;;;;;;36.42;19.75;;;;;;;-3.87;100.00;103020.88;2617323;36;20038;-57
2023/03/01 07:03:20;;;;;;;35.00;19.47;;;;;;;-3.80;100.00;103005.13;2616347;36;20582;-56
2023/03/01 07:05:52;;;;;;;36.92;19.33;;;;;;;-3.77;100.00;103013.03;2616569;36;20083;-59
2023/03/01 07:08:20;;;;;;;37.45;19.00;;;;;;;-3.81;100.00;103019.13;2617374;31;20041;-51
2023/03/01 07:10:57;;;;;;;32.10;17.60;;;;;;;-3.78;100.00;103020.06;2616286;36;20050;-58
2023/03/01 07:13:25;;;;;;;32.35;19.10;;;;;;;-3.73;100.00;103014.81;2615593;36;20041;-51
2023/03/01 07:15:54;;;;;;;30.45;17.08;;;;;;;-3.82;100.00;103012.13;2616758;36;20506;-59
2023/03/01 07:18:22;;;;;;;30.95;17.63;;;;;;;-3.84;100.00;103011.22;2615823;36;20026;-59
2023/03/01 07:20:53;;;;;;;32.22;17.63;;;;;;;-3.90;100.00;103018.22;2616160;36;20315;-52
2023/03/01 07:23:22;;;;;;;33.00;18.35;;;;;;;-3.78;100.00;103013.91;2617131;36;20038;-58
2023/03/01 07:25:57;;;;;;;31.67;16.70;;;;;;;-3.78;100.00;103013.91;2616554;31;20042;-55
2023/03/01 07:28:26;;;;;;;31.55;18.42;;;;;;;-3.78;100.00;103013.91;2615304;36;20037;-54
2023/03/01 07:30:54;;;;;;;32.08;17.17;;;;;;;-3.46;100.00;103021.09;2617238;36;20034;-56
2023/03/01 07:33:23;;;;;;;30.67;17.50;;;;;;;-3.29;100.00;103027.31;2616404;31;20046;-53
2023/03/01 07:35:57;;;;;;;28.70;16.23;;;;;;;-3.22;100.00;103030.88;2616589;36;20030;-52
2023/03/01 07:38:26;;;;;;;32.05;17.52;;;;;;;-3.15;100.00;103031.75;2616801;36;20038;-57
2023/03/01 07:41:00;;;;;;;35.30;18.05;;;;;;;-2.97;100.00;103026.56;2616767;36;20046;-54
2023/03/01 07:43:29;;;;;;;35.60;19.67;;;;;;;-2.89;100.00;103023.94;2615568;36;20041;-54
2023/03/01 07:46:00;;;;;;;33.10;18.43;;;;;;;-2.80;100.00;103026.59;2616637;36;20031;-54
2023/03/01 07:48:28;;;;;;;39.17;21.08;;;;;;;-2.72;100.00;103022.22;2615749;36;20034;-55
2023/03/01 07:50:57;;;;;;;40.70;21.33;;;;;;;-2.57;100.00;103023.13;2616954;36;20552;-57
2023/03/01 07:53:25;;;;;;;37.00;20.10;;;;;;;-2.48;100.00;103015.22;2616772;36;20023;-58
2023/03/01 07:56:06;;;;;;;39.28;19.98;;;;;;;-2.42;100.00;103023.13;2615649;31;20031;-52
2023/03/01 07:58:36;;;;;;;36.72;19.83;;;;;;;-2.30;100.00;103019.63;2615931;36;20034;-50
2023/03/01 08:01:06;;;;;;;37.55;20.58;;;;;;;-2.28;100.00;103025.78;2615720;31;20034;-57
2023/03/01 08:03:34;;;;;;;36.47;20.83;;;;;;;-2.17;100.00;103025.78;2615878;36;20041;-54
2023/03/01 08:06:03;;;;;;;37.75;19.38;;;;;;;-2.06;100.00;103026.66;2615687;36;20540;-52
2023/03/01 08:08:31;;;;;;;40.35;21.85;;;;;;;-1.96;100.00;103030.16;2616349;36;20030;-56
2023/03/01 08:11:00;;;;;;;39.83;20.63;;;;;;;-1.84;100.00;103023.97;2616419;36;20023;-58
2023/03/01 08:13:31;;;;;;;40.40;20.77;;;;;;;-1.70;100.00;103023.94;2615855;36;20569;-50
2023/03/01 08:16:04;;;;;;;41.65;20.38;;;;;;;-1.57;100.00;103017.75;2616869;36;20026;-57
2023/03/01 08:18:32;;;;;;;41.78;20.05;;;;;;;-1.45;100.00;103022.97;2616204;36;20026;-55
2023/03/01 08:21:04;;;;;;;35.22;19.10;;;;;;;-1.44;100.00;103018.59;2616572;36;20042;-54
2023/03/01 08:23:33;;;;;;;42.33;20.25;;;;;;;-1.16;100.00;103018.47;2616364;31;20034;-56
2023/03/01 08:26:09;;;;;;;37.50;20.40;;;;;;;-1.04;100.00;103012.25;2616874;36;20046;-54
2023/03/01 08:28:41;;;;;;;34.00;18.90;;;;;;;-0.97;100.00;103014.84;2615312;36;20030;-59
2023/03/01 08:31:17;;;;;;;32.95;17.35;;;;;;;-0.73;100.00;103018.25;2616827;36;20033;-57
2023/03/01 08:33:50;;;;;;;32.20;18.00;;;;;;;-0.73;100.00;103012.94;2616253;31;20550;-57
2023/03/01 08:36:20;;;;;;;34.90;16.75;;;;;;;-0.41;100.00;103004.78;2617010;36;20431;-59
2023/03/01 08:38:49;;;;;;;31.77;17.52;;;;;;;-0.26;100.00;103013.50;2616100;36;20049;-52
2023/03/01 08:41:17;;;;;;;33.27;16.83;;;;;;;-0.31;100.00;103002.03;2616305;36;20042;-56
2023/03/01 08:43:48;;;;;;;31.98;17.92;;;;;;;-0.11;100.00;103001.88;2616107;36;20306;-54
2023/03/01 08:46:17;;;;;;;31.75;16.02;;;;;;;-0.12;100.00;103000.97;2616300;36;20031;-50
2023/03/01 08:48:45;;;;;;;29.85;16.33;;;;;;;-0.07;100.00;103004.47;2616144;36;20031;-56
2023/03/01 08:51:16;;;;;;;28.58;16.55;;;;;;;0.05;100.00;102999.97;2616597;36;20034;-50
2023/03/01 08:53:45;;;;;;;28.42;16.20;;;;;;;0.30;100.00;103000.59;2615330;31;20558;-53
2023/03/01 08:56:14;;;;;;;28.15;15.27;;;;;;;0.41;100.00;102995.16;2616317;36;20039;-56
2023/03/01 08:58:42;;;;;;;26.38;14.85;;;;;;;0.67;100.00;102998.38;2615607;36;20031;-53
2023/03/01 09:01:15;;;;;;;21.38;14.20;;;;;;;0.78;100.00;102990.28;2616621;36;20611;-58
2023/03/01 09:03:44;;;;;;;25.38;13.73;;;;;;;0.85;100.00;102991.06;2616204;36;20041;-53
2023/03/01 09:06:13;;;;;;;24.63;13.20;;;;;;;0.84;100.00;102984.00;2616488;36;20061;-54
2023/03/01 09:08:42;;;;;;;;;;;;;;;0.97;100.00;102985.63;2615918;36;20038;-55
2023/03/01 09:11:13;;;;;;;24.67;13.48;;;;;;;1.03;100.00;102981.97;2616513;36;19938;-56
2023/03/01 09:13:42;;;;;;;19.77;12.27;;;;;;;1.19;100.00;102979.97;2615733;36;20046;-56
2023/03/01 09:16:11;;;;;;;23.13;13.63;;;;;;;1.31;100.00;102966.53;2616396;36;20027;-55
2023/03/01 09:18:42;;;;;;;21.80;13.10;;;;;;;1.58;100.00;102961.69;2616915;36;20443;-57
2023/03/01 09:21:12;;;;;;;22.38;12.30;;;;;;;1.64;100.00;102955.41;2617556;31;20526;-55
2023/03/01 09:23:43;;;;;;;22.60;11.82;;;;;;;1.60;100.00;102965.16;2616893;36;20432;-53
2023/03/01 09:26:13;;;;;;;21.58;12.43;;;;;;;1.75;100.00;102956.97;2616196;36;20061;-56
2023/03/01 09:28:42;;;;;;;20.42;12.48;;;;;;;1.82;100.00;102954.19;2615148;36;20069;-53
2023/03/01 09:31:12;;;;;;;21.70;12.48;;;;;;;1.77;100.00;102953.38;2616713;31;20157;-57
2023/03/01 09:33:45;;;;;;;24.17;12.93;;;;;;;1.79;100.00;102948.94;2615559;36;20041;-59
2023/03/01 09:36:16;;;;;;;24.98;13.70;;;;;;;2.02;100.00;102951.19;2616402;36;20042;-55
2023/03/01 09:38:45;;;;;;;24.33;12.85;;;;;;;1.94;100.00;102945.97;2616038;36;20427;-54
2023/03/01 09:41:25;;;;;;;20.35;13.02;;;;;;;2.01;100.00;102950.28;2616663;36;20047;-52
2023/03/01 09:43:59;;;;;;;20.20;12.20;;;;;;;2.22;100.00;102954.31;2616631;36;20065;-54
2023/03/01 09:46:29;;;;;;;20.55;11.70;;;;;;;2.34;100.00;102954.97;2616237;36;20051;-53
2023/03/01 09:49:04;;;;;;;18.63;11.45;;;;;;;2.53;100.00;102958.13;2616084;36;20033;-52
2023/03/01 09:51:35;;;;;;;18.10;11.10;;;;;;;2.72;100.00;102948.81;2616186;36;20026;-52
2023/03/01 09:54:05;;;;;;;19.33;10.65;;;;;;;2.94;100.00;102953.69;2615897;31;20027;-53
2023/03/01 09:56:39;;;;;;;17.98;11.10;;;;;;;2.86;100.00;102953.00;2615939;36;20542;-51
2023/03/01 09:59:20;;;;;;;16.40;10.13;;;;;;;3.02;100.00;102946.41;2616943;36;20466;-54
2023/03/01 10:01:57;;;;;;;17.02;10.27;;;;;;;3.14;100.00;102945.25;2615860;36;20029;-60
2023/03/01 10:04:38;;;;;;;18.13;11.00;;;;;;;3.06;100.00;102948.09;2615232;36;20038;-58
2023/03/01 10:07:22;;;;;;;14.68;9.20;;;;;;;3.29;100.00;102934.22;2616554;36;20061;-56
2023/03/01 10:09:51;;;;;;;13.20;8.70;;;;;;;3.50;100.00;102932.81;2616074;36;20050;-52
2023/03/01 10:12:23;;;;;;;13.27;7.78;;;;;;;3.55;100.00;102935.34;2615763;36;20029;-56
2023/03/01 10:15:00;;;;;;;9.82;6.30;;;;;;;3.60;100.00;102928.09;2616355;36;20033;-54
2023/03/01 10:17:33;;;;;;;14.55;7.75;;;;;;;3.77;100.00;102926.78;2616346;36;20783;-48
2023/03/01 10:22:59;;;;;;;11.75;6.85;;;;;;;3.69;100.00;102921.66;2619655;36;20180;-50
2023/03/01 10:25:44;;;;;;;12.82;7.63;;;;;;;3.74;100.00;102921.53;2619368;36;20022;-54
2023/03/01 10:28:19;;;;;;;13.27;8.80;;;;;;;3.82;100.00;102912.44;2620183;36;20550;-53
2023/03/01 10:30:48;;;;;;;15.68;9.02;;;;;;;4.04;100.00;102917.19;2620311;36;20049;-50
2023/03/01 10:33:21;;;;;;;12.60;8.00;;;;;;;4.01;100.00;102919.94;2619114;36;20049;-54
2023/03/01 10:35:49;;;;;;;12.07;6.75;;;;;;;4.24;100.00;102927.28;2621140;36;20390;-55
2023/03/01 10:38:22;;;;;;;10.75;6.82;;;;;;;4.13;100.00;102919.56;2620270;36;20118;-53
2023/03/01 10:40:56;;;;;;;14.55;7.68;;;;;;;4.25;100.00;102914.81;2620048;36;20030;-53
2023/03/01 10:43:26;;;;;;;14.15;7.65;;;;;;;4.35;100.00;102908.31;2620387;36;20042;-57
2023/03/01 10:45:55;;;;;;;12.45;8.23;;;;;;;4.49;100.00;102907.88;2620424;36;20045;-52
2023/03/01 10:48:27;;;;;;;12.55;7.85;;;;;;;4.49;100.00;102907.88;2618973;36;20034;-52
2023/03/01 10:51:08;;;;;;;13.77;8.13;;;;;;;4.61;100.00;102895.97;2621200;36;20508;-54
2023/03/01 10:53:43;;;;;;;15.55;8.73;;;;;;;4.59;100.00;102908.47;2619903;36;20924;-57
2023/03/01 10:56:15;;;;;;;11.80;7.85;;;;;;;4.79;100.00;102895.41;2618975;36;20027;-51
2023/03/01 10:58:59;;;;;;;11.90;7.63;;;;;;;4.74;100.00;102890.22;2620588;36;20038;-54
2023/03/01 11:01:29;;;;;;;11.88;6.85;;;;;;;4.88;100.00;102892.44;2620264;36;20393;-52
2023/03/01 11:04:13;;;;;;;11.75;6.95;;;;;;;4.96;100.00;102888.66;2619887;36;20420;-50
2023/03/01 11:06:43;;;;;;;9.25;6.13;;;;;;;5.28;100.00;102882.25;2620464;31;20027;-53
2023/03/01 11:09:22;;;;;;;8.23;4.72;;;;;;;5.01;100.00;102868.91;2620520;36;20038;-54
2023/03/01 11:11:54;;;;;;;7.32;4.82;;;;;;;5.08;100.00;102859.78;2619781;36;20034;-51
2023/03/01 11:14:25;;;;;;;7.38;5.18;;;;;;;5.14;100.00;102856.03;2619954;31;20042;-54
2023/03/01 11:17:02;;;;;;;8.90;5.00;;;;;;;5.04;100.00;102862.59;2620442;36;20034;-54
2023/03/01 11:19:31;;;;;;;8.48;5.32;;;;;;;4.95;100.00;102855.75;2619700;36;20026;-58
2023/03/01 11:22:04;;;;;;;9.13;5.30;;;;;;;5.13;100.00;102850.75;2619977;36;20041;-56
2023/03/01 11:24:41;;;;;;;9.50;5.00;;;;;;;5.06;100.00;102850.06;2619479;36;20050;-51
2023/03/01 11:27:19;;;;;;;9.00;4.60;;;;;;;5.19;100.00;102846.06;2619960;36;20037;-57